createdAt,value
2018-04-24T00:01:58.970Z,6.53
2018-04-24T00:04:30.929Z,8.73
2018-04-24T00:07:00.964Z,10.90
2018-04-24T00:09:33.671Z,6.07
2018-04-24T00:12:06.738Z,7.07
2018-04-24T00:14:38.866Z,8.03
2018-04-24T00:17:10.492Z,7.30
2018-04-24T00:19:38.593Z,5.90
2018-04-24T00:22:06.677Z,10.63
2018-04-24T00:24:38.665Z,6.63
2018-04-24T00:27:06.751Z,7.33
2018-04-24T00:29:34.873Z,6.70
2018-04-24T00:32:04.983Z,6.63
2018-04-24T00:34:51.381Z,6.93
2018-04-24T00:37:19.490Z,6.03
2018-04-24T00:39:47.574Z,7.70
2018-04-24T00:42:25.505Z,6.00
2018-04-24T00:44:55.561Z,7.50
2018-04-24T00:47:23.650Z,7.60
2018-04-24T00:49:51.739Z,7.37
2018-04-24T00:52:19.837Z,7.60
2018-04-24T00:54:47.925Z,8.90
2018-04-24T00:57:16.018Z,6.40
2018-04-24T00:59:46.013Z,7.87
2018-04-24T01:02:17.154Z,9.13
2018-04-24T01:04:47.912Z,7.27
2018-04-24T01:07:15.994Z,11.63
2018-04-24T01:09:44.104Z,11.73
2018-04-24T01:12:20.109Z,7.87
2018-04-24T01:14:51.629Z,12.53
2018-04-24T01:17:19.705Z,12.43
2018-04-24T01:19:47.817Z,8.77
2018-04-24T01:22:15.911Z,11.13
2018-04-24T01:24:43.992Z,10.80
2018-04-24T01:27:12.077Z,9.20
2018-04-24T01:29:43.804Z,9.37
2018-04-24T01:32:27.198Z,10.13
2018-04-24T01:34:55.291Z,9.20
2018-04-24T01:37:23.402Z,8.93
2018-04-24T01:39:53.257Z,7.67
2018-04-24T01:42:22.257Z,8.70
2018-04-24T01:44:50.448Z,7.63
2018-04-24T01:47:18.526Z,8.63
2018-04-24T01:49:51.422Z,13.10
2018-04-24T01:52:24.248Z,11.00
2018-04-24T01:54:53.317Z,9.27
2018-04-24T01:57:22.334Z,8.00
2018-04-24T01:59:50.438Z,10.13
2018-04-24T02:02:18.523Z,9.40
2018-04-24T02:04:46.633Z,8.70
2018-04-24T02:07:14.713Z,10.03
2018-04-24T02:09:44.791Z,7.77
2018-04-24T02:12:24.419Z,7.07
2018-04-24T02:14:52.517Z,10.13
2018-04-24T02:17:22.345Z,6.67
2018-04-24T02:20:01.361Z,6.97
2018-04-24T02:22:41.462Z,7.40
2018-04-24T02:25:11.298Z,7.17
2018-04-24T02:27:46.284Z,6.73
2018-04-24T02:30:16.358Z,6.77
2018-04-24T02:32:44.474Z,6.30
2018-04-24T02:35:13.552Z,7.60
2018-04-24T02:37:42.558Z,8.50
2018-04-24T02:40:11.557Z,7.27
2018-04-24T02:42:41.427Z,10.90
2018-04-24T02:45:09.513Z,7.00
2018-04-24T02:47:39.493Z,6.77
2018-04-24T02:50:08.495Z,6.70
2018-04-24T02:52:37.341Z,6.37
2018-04-24T02:55:05.520Z,5.37
2018-04-24T02:57:33.591Z,5.67
2018-04-24T03:00:01.675Z,6.53
2018-04-24T03:02:35.391Z,5.23
2018-04-24T03:05:03.487Z,5.83
2018-04-24T03:07:31.573Z,9.17
2018-04-24T03:10:00.638Z,5.90
2018-04-24T03:12:28.734Z,7.90
2018-04-24T03:14:56.801Z,6.20
2018-04-24T03:17:25.670Z,7.20
2018-04-24T03:19:54.713Z,7.00
2018-04-24T03:22:24.369Z,5.83
2018-04-24T03:25:02.326Z,6.73
2018-04-24T03:27:30.413Z,7.37
2018-04-24T03:30:00.469Z,6.97
2018-04-24T03:32:35.501Z,6.03
2018-04-24T03:35:04.342Z,5.90
2018-04-24T03:37:32.436Z,7.07
2018-04-24T03:40:05.321Z,6.30
2018-04-24T03:42:33.445Z,7.00
2018-04-24T03:45:02.489Z,5.20
2018-04-24T03:47:31.345Z,9.33
2018-04-24T03:50:00.401Z,5.27
2018-04-24T03:52:28.497Z,7.40
2018-04-24T03:54:59.756Z,7.50
2018-04-24T03:57:28.211Z,6.30
2018-04-24T03:59:56.269Z,6.33
2018-04-24T04:02:24.351Z,6.60
2018-04-24T04:04:53.397Z,8.27
2018-04-24T04:07:22.250Z,7.97
2018-04-24T04:09:51.316Z,9.83
2018-04-24T04:12:25.876Z,8.70
2018-04-24T04:14:58.815Z,8.10
2018-04-24T04:17:38.987Z,9.00
2018-04-24T04:20:22.539Z,9.17
2018-04-24T04:23:07.665Z,10.20
2018-04-24T04:25:37.718Z,10.93
2018-04-24T04:28:06.795Z,13.57
2018-04-24T04:30:35.863Z,8.87
2018-04-24T04:33:09.533Z,9.70
2018-04-24T04:35:44.247Z,11.63
2018-04-24T04:38:15.032Z,12.97
2018-04-24T04:40:44.843Z,11.80
2018-04-24T04:43:14.894Z,11.50
2018-04-24T04:45:42.997Z,10.90
2018-04-24T04:48:11.098Z,10.83
2018-04-24T04:50:40.148Z,12.90
2018-04-24T04:53:09.155Z,14.47
2018-04-24T04:55:37.350Z,10.90
2018-04-24T04:58:05.484Z,9.83
2018-04-24T05:00:38.428Z,10.03
2018-04-24T05:03:06.575Z,13.30
2018-04-24T05:05:35.474Z,14.07
2018-04-24T05:08:03.613Z,10.40
2018-04-24T05:10:31.695Z,10.50
2018-04-24T05:12:59.785Z,14.40
2018-04-24T05:15:27.915Z,10.80
2018-04-24T05:17:56.008Z,12.60
2018-04-24T05:20:32.576Z,9.10
2018-04-24T05:23:01.637Z,10.87
2018-04-24T05:25:30.787Z,10.90
2018-04-24T05:27:58.911Z,12.03
2018-04-24T05:30:27.003Z,12.10
2018-04-24T05:33:04.403Z,15.57
2018-04-24T05:35:32.545Z,11.47
2018-04-24T05:38:00.654Z,12.50
2018-04-24T05:40:29.593Z,12.43
2018-04-24T05:42:59.629Z,12.97
2018-04-24T05:45:30.022Z,16.20
2018-04-24T05:47:58.903Z,14.63
2018-04-24T05:50:28.846Z,13.20
2018-04-24T05:53:00.768Z,13.20
2018-04-24T05:55:29.822Z,11.97
2018-04-24T05:57:57.966Z,12.07
2018-04-24T06:00:27.981Z,12.07
2018-04-24T06:02:56.292Z,14.23
2018-04-24T06:05:26.099Z,11.87
2018-04-24T06:07:54.221Z,12.23
2018-04-24T06:10:23.302Z,12.03
2018-04-24T06:12:51.400Z,10.90
2018-04-24T06:15:20.485Z,12.43
2018-04-24T06:17:51.769Z,11.93
2018-04-24T06:20:20.921Z,14.03
2018-04-24T06:22:51.036Z,11.93
2018-04-24T06:25:20.957Z,13.50
2018-04-24T06:27:49.890Z,15.93
2018-04-24T06:30:18.987Z,13.70
2018-04-24T06:32:47.842Z,14.23
2018-04-24T06:35:19.476Z,12.07
2018-04-24T06:37:48.473Z,11.63
2018-04-24T06:40:18.546Z,11.40
2018-04-24T06:42:46.665Z,12.20
2018-04-24T06:45:16.760Z,12.07
2018-04-24T06:47:45.946Z,13.83
2018-04-24T06:50:14.168Z,12.83
2018-04-24T06:52:42.245Z,15.90
2018-04-24T06:55:11.310Z,12.77
2018-04-24T06:57:40.294Z,14.27
2018-04-24T07:00:10.270Z,13.43
2018-04-24T07:02:38.386Z,13.20
2018-04-24T07:05:06.479Z,13.30
2018-04-24T07:07:37.555Z,13.23
2018-04-24T07:10:10.468Z,13.53
2018-04-24T07:12:38.579Z,13.47
2018-04-24T07:15:07.725Z,16.77
2018-04-24T07:17:39.845Z,13.80
2018-04-24T07:20:07.973Z,13.53
2018-04-24T07:22:44.490Z,14.30
2018-04-24T07:25:13.933Z,14.40
2018-04-24T07:27:43.071Z,13.93
2018-04-24T07:30:11.211Z,14.87
2018-04-24T07:32:40.053Z,16.67
2018-04-24T07:35:09.121Z,14.13
2018-04-24T07:37:41.092Z,15.00
2018-04-24T07:40:09.191Z,14.47
2018-04-24T07:42:38.383Z,17.90
2018-04-24T07:45:13.394Z,20.80
2018-04-24T07:47:46.711Z,15.87
2018-04-24T07:50:15.785Z,18.37
2018-04-24T07:52:43.925Z,15.33
2018-04-24T07:55:15.014Z,16.07
2018-04-24T07:57:46.967Z,16.20
2018-04-24T08:00:15.085Z,15.90
2018-04-24T08:02:44.141Z,15.63
2018-04-24T08:05:15.353Z,15.73
2018-04-24T08:07:43.466Z,19.73
2018-04-24T08:10:11.574Z,16.80
2018-04-24T08:12:45.021Z,16.87
2018-04-24T08:15:13.111Z,17.17
2018-04-24T08:17:42.222Z,15.90
2018-04-24T08:20:11.194Z,16.07
2018-04-24T08:22:41.371Z,16.10
2018-04-24T08:25:16.265Z,17.80
2018-04-24T08:27:46.298Z,17.97
2018-04-24T08:30:14.404Z,16.30
2018-04-24T08:32:42.697Z,17.73
2018-04-24T08:35:10.798Z,18.07
2018-04-24T08:37:43.580Z,16.73
2018-04-24T08:40:11.726Z,17.87
2018-04-24T08:42:46.199Z,17.20
2018-04-24T08:45:14.287Z,16.53
2018-04-24T08:47:42.380Z,16.90
2018-04-24T08:50:10.533Z,16.97
2018-04-24T08:52:38.633Z,17.67
2018-04-24T08:55:06.744Z,22.23
2018-04-24T08:57:35.771Z,16.73
2018-04-24T09:00:03.970Z,15.47
2018-04-24T09:02:34.164Z,16.80
2018-04-24T09:05:02.299Z,16.93
2018-04-24T09:07:32.298Z,14.40
2018-04-24T09:10:02.163Z,15.53
2018-04-24T09:12:30.284Z,17.53
2018-04-24T09:14:59.326Z,17.83
2018-04-24T09:17:27.734Z,16.47
2018-04-24T09:19:55.857Z,16.20
2018-04-24T09:22:26.394Z,15.63
2018-04-24T09:24:54.525Z,16.87
2018-04-24T09:27:22.612Z,16.87
2018-04-24T09:29:56.250Z,17.30
2018-04-24T09:32:28.758Z,15.47
2018-04-24T09:35:00.319Z,17.67
2018-04-24T09:37:35.921Z,16.17
2018-04-24T09:40:04.868Z,15.40
2018-04-24T09:42:32.948Z,16.40
2018-04-24T09:45:01.435Z,15.97
2018-04-24T09:47:30.457Z,14.87
2018-04-24T09:49:58.583Z,16.83
2018-04-24T09:52:31.602Z,15.70
2018-04-24T09:55:01.053Z,16.80
2018-04-24T09:57:30.136Z,16.30
2018-04-24T09:59:58.256Z,16.17
2018-04-24T10:02:27.362Z,16.00
2018-04-24T10:04:59.682Z,15.83
2018-04-24T10:07:29.530Z,15.23
2018-04-24T10:09:57.922Z,16.80
2018-04-24T10:12:37.774Z,15.63
2018-04-24T10:15:07.866Z,17.70
2018-04-24T10:17:42.358Z,17.60
2018-04-24T10:20:10.478Z,15.70
2018-04-24T10:22:38.565Z,17.03
2018-04-24T10:25:07.709Z,19.07
2018-04-24T10:27:35.786Z,18.33
2018-04-24T10:30:04.666Z,22.10
2018-04-24T10:32:32.757Z,17.07
2018-04-24T10:35:08.024Z,17.70
2018-04-24T10:37:37.086Z,15.40
2018-04-24T10:40:05.228Z,15.37
2018-04-24T10:42:35.124Z,15.47
2018-04-24T10:45:04.682Z,15.60
2018-04-24T10:47:32.762Z,16.00
2018-04-24T10:50:00.875Z,19.63
2018-04-24T10:52:29.729Z,16.23
2018-04-24T10:54:57.875Z,15.57
2018-04-24T10:57:27.194Z,15.93
2018-04-24T11:00:03.321Z,16.63
2018-04-24T11:02:33.132Z,17.67
2018-04-24T11:05:06.992Z,17.77
2018-04-24T11:07:35.208Z,17.07
2018-04-24T11:10:04.330Z,18.63
2018-04-24T11:12:32.466Z,17.83
2018-04-24T11:15:02.505Z,18.43
2018-04-24T11:17:30.606Z,17.37
2018-04-24T11:20:02.482Z,18.50
2018-04-24T11:22:37.097Z,17.90
2018-04-24T11:25:05.131Z,18.20
2018-04-24T11:27:44.389Z,20.47
2018-04-24T11:30:12.568Z,20.60
2018-04-24T11:32:40.673Z,19.37
2018-04-24T11:35:09.707Z,19.33
2018-04-24T11:37:38.164Z,19.57
2018-04-24T11:40:08.959Z,21.60
2018-04-24T11:42:38.111Z,21.67
2018-04-24T11:45:07.410Z,20.70
2018-04-24T11:47:39.307Z,18.60
2018-04-24T11:50:08.169Z,19.13
2018-04-24T11:52:36.281Z,17.40
2018-04-24T11:55:06.194Z,15.37
2018-04-24T11:57:34.290Z,13.33
2018-04-24T12:00:07.065Z,12.67
2018-04-24T12:02:35.257Z,13.43
2018-04-24T12:05:05.257Z,14.57
2018-04-24T12:07:41.392Z,14.23
2018-04-24T12:10:14.200Z,16.97
2018-04-24T12:12:42.290Z,8.27
2018-04-24T12:15:11.312Z,12.23
2018-04-24T12:17:40.389Z,10.20
2018-04-24T12:20:08.510Z,14.27
2018-04-24T12:22:37.593Z,15.07
2018-04-24T12:25:05.684Z,13.20
2018-04-24T12:27:39.475Z,9.77
2018-04-24T12:30:07.590Z,12.73
2018-04-24T12:32:36.487Z,13.50
2018-04-24T12:35:04.607Z,9.03
2018-04-24T12:37:33.674Z,10.20
2018-04-24T12:40:03.714Z,15.03
2018-04-24T12:42:31.798Z,10.70
2018-04-24T12:45:00.907Z,11.93
2018-04-24T12:47:29.976Z,12.37
2018-04-24T12:49:58.862Z,10.80
2018-04-24T12:52:27.017Z,10.53
2018-04-24T12:54:56.149Z,12.37
2018-04-24T12:57:27.673Z,12.77
2018-04-24T12:59:56.777Z,18.03
2018-04-24T13:02:24.890Z,16.60
2018-04-24T13:04:53.050Z,14.73
2018-04-24T13:07:21.136Z,14.93
2018-04-24T13:09:51.249Z,14.37
2018-04-24T13:12:19.304Z,13.90
2018-04-24T13:14:48.414Z,16.87
2018-04-24T13:17:18.560Z,16.50
2018-04-24T13:19:52.301Z,18.73
2018-04-24T13:22:24.057Z,18.40
2018-04-24T13:25:06.202Z,13.93
2018-04-24T13:27:35.015Z,16.60
2018-04-24T13:30:03.139Z,14.90
2018-04-24T13:32:31.284Z,16.10
2018-04-24T13:34:59.402Z,12.27
2018-04-24T13:37:42.029Z,13.37
2018-04-24T13:40:12.813Z,13.97
2018-04-24T13:42:42.876Z,13.80
2018-04-24T13:45:13.126Z,15.07
2018-04-24T13:47:44.536Z,13.97
2018-04-24T13:50:14.545Z,17.60
2018-04-24T13:52:42.686Z,15.80
2018-04-24T13:55:29.196Z,18.20
2018-04-24T13:57:57.258Z,18.00
2018-04-24T14:00:26.428Z,14.30
2018-04-24T14:02:55.294Z,16.00
2018-04-24T14:05:23.407Z,14.97
2018-04-24T14:07:51.517Z,13.90
2018-04-24T14:10:19.644Z,14.60
2018-04-24T14:12:47.748Z,14.20
2018-04-24T14:15:15.861Z,14.03
2018-04-24T14:17:44.732Z,18.10
2018-04-24T14:20:13.966Z,14.97
2018-04-24T14:22:47.466Z,16.30
2018-04-24T14:25:15.565Z,14.80
2018-04-24T14:27:46.339Z,12.60
2018-04-24T14:30:15.446Z,12.53
2018-04-24T14:32:52.259Z,16.30
2018-04-24T14:35:22.295Z,12.00
2018-04-24T14:37:54.875Z,11.50
2018-04-24T14:40:22.992Z,17.70
2018-04-24T14:42:51.099Z,9.97
2018-04-24T14:45:19.212Z,14.70
2018-04-24T14:47:47.332Z,15.47
2018-04-24T14:50:17.567Z,12.17
2018-04-24T14:52:51.204Z,13.40
2018-04-24T14:55:19.340Z,11.67
2018-04-24T14:57:48.411Z,9.67
2018-04-24T15:00:17.488Z,12.07
2018-04-24T15:02:49.800Z,11.00
2018-04-24T15:05:18.672Z,10.40
2018-04-24T15:07:54.300Z,11.07
2018-04-24T15:10:23.361Z,11.53
2018-04-24T15:12:56.887Z,9.80
2018-04-24T15:15:24.974Z,10.90
2018-04-24T15:17:53.115Z,12.80
2018-04-24T15:20:21.200Z,11.27
2018-04-24T15:22:49.308Z,8.50
2018-04-24T15:25:22.338Z,9.73
2018-04-24T15:27:50.426Z,9.00
2018-04-24T15:30:18.539Z,9.07
2018-04-24T15:32:47.624Z,11.57
2018-04-24T15:35:15.706Z,12.27
2018-04-24T15:37:46.562Z,11.73
2018-04-24T15:40:14.645Z,10.40
2018-04-24T15:42:44.735Z,13.47
2018-04-24T15:45:16.855Z,10.70
2018-04-24T15:47:44.949Z,7.77
2018-04-24T15:50:14.507Z,10.07
2018-04-24T15:52:42.602Z,10.47
2018-04-24T15:55:10.709Z,8.63
2018-04-24T15:57:44.664Z,10.20
2018-04-24T16:00:13.781Z,9.73
2018-04-24T16:02:41.864Z,9.00
2018-04-24T16:05:10.001Z,10.27
2018-04-24T16:07:38.095Z,13.00
2018-04-24T16:10:09.388Z,8.13
2018-04-24T16:12:39.517Z,9.13
2018-04-24T16:15:10.920Z,10.37
2018-04-24T16:17:39.052Z,8.33
2018-04-24T16:20:10.445Z,12.10
2018-04-24T16:22:39.481Z,8.17
2018-04-24T16:25:09.332Z,9.60
2018-04-24T16:27:44.643Z,8.33
2018-04-24T16:30:13.702Z,11.07
2018-04-24T16:32:42.940Z,9.23
2018-04-24T16:35:11.811Z,7.60
2018-04-24T16:37:40.172Z,9.17
2018-04-24T16:40:08.254Z,8.47
2018-04-24T16:42:39.622Z,11.17
2018-04-24T16:45:08.673Z,8.40
2018-04-24T16:47:44.009Z,7.93
2018-04-24T16:50:13.107Z,9.63
2018-04-24T16:55:42.333Z,7.50
2018-04-24T16:58:18.791Z,10.57
2018-04-24T17:00:48.396Z,9.83
2018-04-24T17:03:16.533Z,12.53
2018-04-24T17:05:46.602Z,9.50
2018-04-24T17:08:14.703Z,11.40
2018-04-24T17:10:43.730Z,9.70
2018-04-24T17:13:12.841Z,11.60
2018-04-24T17:15:42.868Z,9.50
2018-04-24T17:18:10.979Z,8.43
2018-04-24T17:20:39.943Z,11.80
2018-04-24T17:23:08.045Z,11.20
2018-04-24T17:25:36.213Z,11.27
2018-04-24T17:28:04.265Z,10.77
2018-04-24T17:30:44.350Z,9.30
2018-04-24T17:33:12.463Z,7.80
2018-04-24T17:35:40.611Z,7.03
2018-04-24T17:38:08.699Z,13.10
2018-04-24T17:40:38.504Z,10.00
2018-04-24T17:43:07.791Z,11.07
2018-04-24T17:45:44.419Z,10.00
2018-04-24T17:48:13.533Z,8.00
2018-04-24T17:50:42.807Z,12.13
2018-04-24T17:53:10.923Z,10.20
2018-04-24T17:55:40.987Z,10.27
2018-04-24T17:58:11.106Z,7.27
2018-04-24T18:00:44.233Z,11.23
2018-04-24T18:03:13.322Z,7.83
2018-04-24T18:05:41.420Z,10.90
2018-04-24T18:08:09.690Z,11.73
2018-04-24T18:10:42.091Z,15.40
2018-04-24T18:13:10.241Z,7.70
2018-04-24T18:15:38.349Z,8.87
2018-04-24T18:18:14.858Z,7.70
2018-04-24T18:20:44.893Z,8.70
2018-04-24T18:23:16.997Z,5.83
2018-04-24T18:25:45.156Z,8.57
2018-04-24T18:28:26.585Z,4.90
2018-04-24T18:30:54.677Z,6.40
2018-04-24T18:33:22.770Z,9.30
2018-04-24T18:35:51.618Z,11.27
2018-04-24T18:38:42.583Z,6.27
2018-04-24T18:41:22.053Z,7.23
2018-04-24T18:43:51.950Z,10.90
2018-04-24T18:46:21.010Z,9.70
2018-04-24T18:48:49.631Z,10.67
2018-04-24T18:51:23.625Z,7.60
2018-04-24T18:53:51.724Z,11.40
2018-04-24T18:56:20.259Z,8.70
2018-04-24T18:58:54.788Z,8.30
2018-04-24T19:01:23.825Z,9.80
2018-04-24T19:03:59.190Z,6.60
2018-04-24T19:06:27.297Z,5.97
2018-04-24T19:08:55.401Z,5.33
2018-04-24T19:11:23.486Z,7.43
2018-04-24T19:13:51.583Z,6.53
2018-04-24T19:16:19.662Z,8.57
2018-04-24T19:18:56.940Z,7.40
2018-04-24T19:21:25.033Z,7.97
2018-04-24T19:23:53.125Z,6.93
2018-04-24T19:26:25.964Z,10.90
2018-04-24T19:28:54.859Z,6.53
2018-04-24T19:31:32.504Z,6.47
2018-04-24T19:34:09.068Z,9.17
2018-04-24T19:36:38.059Z,4.37
2018-04-24T19:39:13.610Z,5.93
2018-04-24T19:41:48.052Z,8.37
2018-04-24T19:44:17.501Z,4.07
2018-04-24T19:46:45.586Z,7.73
2018-04-24T19:49:20.313Z,6.80
2018-04-24T19:51:50.293Z,8.33
2018-04-24T19:54:18.513Z,8.03
2018-04-24T19:56:50.798Z,8.17
2018-04-24T19:59:20.693Z,4.70
2018-04-24T20:01:48.790Z,7.43
2018-04-24T20:04:21.524Z,6.87
2018-04-24T20:06:53.389Z,7.40
2018-04-24T20:09:23.440Z,6.00
2018-04-24T20:11:55.082Z,5.30
2018-04-24T20:14:26.545Z,6.83
2018-04-24T20:16:58.442Z,9.30
2018-04-24T20:19:26.562Z,9.83
2018-04-24T20:21:55.644Z,8.13
2018-04-24T20:24:23.739Z,10.37
2018-04-24T20:26:52.837Z,9.73
2018-04-24T20:29:20.919Z,6.50
2018-04-24T20:31:49.014Z,8.97
2018-04-24T20:34:17.144Z,9.93
2018-04-24T20:36:46.982Z,12.87
2018-04-24T20:39:15.984Z,10.27
2018-04-24T20:41:44.271Z,11.67
2018-04-24T20:44:15.724Z,13.40
2018-04-24T20:46:43.804Z,10.27
2018-04-24T20:49:16.984Z,11.70
2018-04-24T20:51:49.709Z,10.83
2018-04-24T20:54:34.921Z,13.43
2018-04-24T20:57:02.985Z,9.07
2018-04-24T20:59:35.161Z,12.63
2018-04-24T21:02:04.220Z,10.77
2018-04-24T21:04:32.326Z,9.43
2018-04-24T21:07:01.189Z,12.70
2018-04-24T21:09:29.290Z,11.30
2018-04-24T21:11:58.372Z,9.57
2018-04-24T21:14:44.278Z,9.17
2018-04-24T21:17:20.393Z,8.30
2018-04-24T21:19:50.233Z,10.40
2018-04-24T21:22:20.265Z,9.70
2018-04-24T21:24:48.346Z,9.87
2018-04-24T21:27:20.126Z,16.47
2018-04-24T21:29:49.187Z,10.60
2018-04-24T21:32:18.223Z,7.60
2018-04-24T21:34:50.314Z,10.93
2018-04-24T21:37:18.437Z,13.63
2018-04-24T21:39:46.506Z,8.83
2018-04-24T21:42:20.398Z,7.47
2018-04-24T21:44:49.417Z,10.50
2018-04-24T21:47:18.305Z,11.90
2018-04-24T21:49:46.399Z,9.67
2018-04-24T21:52:15.420Z,10.37
2018-04-24T21:54:43.494Z,6.23
2018-04-24T21:57:11.602Z,5.03
2018-04-24T21:59:41.826Z,7.80
2018-04-24T22:02:10.910Z,9.63
2018-04-24T22:04:43.206Z,5.70
2018-04-24T22:07:11.297Z,6.57
2018-04-24T22:09:40.274Z,5.20
2018-04-24T22:12:09.498Z,7.80
2018-04-24T22:14:42.178Z,10.63
2018-04-24T22:17:10.263Z,4.60
2018-04-24T22:19:38.349Z,5.67
2018-04-24T22:22:07.408Z,7.13
2018-04-24T22:24:35.494Z,6.37
2018-04-24T22:27:05.618Z,6.77
2018-04-24T22:29:34.582Z,6.27
2018-04-24T22:32:06.419Z,7.40
2018-04-24T22:34:34.477Z,6.67
2018-04-24T22:37:02.565Z,6.40
2018-04-24T22:39:30.646Z,8.83
2018-04-24T22:42:02.799Z,7.37
2018-04-24T22:44:38.218Z,6.57
2018-04-24T22:47:10.242Z,6.33
2018-04-24T22:49:44.342Z,4.50
2018-04-24T22:52:13.462Z,3.90
2018-04-24T22:54:41.455Z,9.63
2018-04-24T22:57:14.313Z,4.60
2018-04-24T22:59:45.061Z,4.17
2018-04-24T23:02:18.986Z,3.67
2018-04-24T23:04:47.791Z,6.20
2018-04-24T23:07:15.866Z,6.30
2018-04-24T23:12:54.533Z,12.10
2018-04-24T23:15:36.223Z,13.53
2018-04-24T23:18:17.881Z,8.40
2018-04-24T23:20:45.542Z,11.97
2018-04-24T23:23:13.638Z,11.27
2018-04-24T23:25:41.739Z,12.07
2018-04-24T23:28:09.857Z,11.90
2018-04-24T23:30:41.333Z,12.10
2018-04-24T23:33:09.435Z,14.13
2018-04-24T23:35:37.556Z,11.63
2018-04-24T23:38:05.643Z,15.00
2018-04-24T23:40:33.756Z,20.63
2018-04-24T23:43:02.621Z,16.53
2018-04-24T23:45:30.707Z,13.80
2018-04-24T23:47:59.785Z,13.30
2018-04-24T23:50:27.890Z,18.43
2018-04-24T23:52:56.018Z,15.30
2018-04-24T23:55:24.107Z,12.33
2018-04-24T23:57:52.968Z,18.17
